sensor_id;sensor_type;location;lat;lon;timestamp;pressure;altitude;pressure_sealevel;temperature;humidity
56604;BME280;42486;47.478;19.036;2023-05-11T00:02:40;100323.78;;;12.49;69.74
56604;BME280;42486;47.478;19.036;2023-05-11T00:05:46;100318.34;;;12.41;67.71
56604;BME280;42486;47.478;19.036;2023-05-11T00:08:51;100319.31;;;12.40;68.89
56604;BME280;42486;47.478;19.036;2023-05-11T00:11:54;100316.53;;;12.41;70.14
56604;BME280;42486;47.478;19.036;2023-05-11T00:14:58;100319.53;;;12.37;70.94
56604;BME280;42486;47.478;19.036;2023-05-11T00:18:01;100316.34;;;12.33;70.66
56604;BME280;42486;47.478;19.036;2023-05-11T00:21:05;100321.47;;;12.34;71.78
56604;BME280;42486;47.478;19.036;2023-05-11T00:24:09;100311.19;;;12.43;70.65
56604;BME280;42486;47.478;19.036;2023-05-11T00:27:13;100311.31;;;12.41;70.94
56604;BME280;42486;47.478;19.036;2023-05-11T00:30:18;100317.06;;;12.35;70.42
56604;BME280;42486;47.478;19.036;2023-05-11T00:33:22;100313.88;;;12.31;71.27
56604;BME280;42486;47.478;19.036;2023-05-11T00:36:26;100311.94;;;12.33;72.65
56604;BME280;42486;47.478;19.036;2023-05-11T00:39:29;100314.28;;;12.37;72.70
56604;BME280;42486;47.478;19.036;2023-05-11T00:42:33;100313.09;;;12.41;71.83
56604;BME280;42486;47.478;19.036;2023-05-11T00:45:37;100303.12;;;12.34;73.46
56604;BME280;42486;47.478;19.036;2023-05-11T00:48:42;100303.69;;;12.38;72.53
56604;BME280;42486;47.478;19.036;2023-05-11T00:51:45;100304.53;;;12.39;70.94
56604;BME280;42486;47.478;19.036;2023-05-11T00:54:48;100300.34;;;12.47;71.42
56604;BME280;42486;47.478;19.036;2023-05-11T00:57:53;100297.47;;;12.50;72.07
56604;BME280;42486;47.478;19.036;2023-05-11T01:00:56;100301.84;;;12.50;71.65
56604;BME280;42486;47.478;19.036;2023-05-11T01:04:02;100303.97;;;12.56;71.10
56604;BME280;42486;47.478;19.036;2023-05-11T01:10:14;100295.75;;;12.61;70.31
56604;BME280;42486;47.478;19.036;2023-05-11T01:16:25;100293.81;;;12.63;70.63
56604;BME280;42486;47.478;19.036;2023-05-11T01:19:40;100304.38;;;12.72;71.24
56604;BME280;42486;47.478;19.036;2023-05-11T01:32:24;100301.13;;;12.80;69.54
56604;BME280;42486;47.478;19.036;2023-05-11T01:35:29;100295.03;;;12.80;69.41
56604;BME280;42486;47.478;19.036;2023-05-11T01:38:34;100299.00;;;12.74;68.42
56604;BME280;42486;47.478;19.036;2023-05-11T01:41:39;100296.75;;;12.69;69.22
56604;BME280;42486;47.478;19.036;2023-05-11T01:44:44;100298.94;;;12.64;69.09
56604;BME280;42486;47.478;19.036;2023-05-11T01:47:50;100300.59;;;12.65;69.35
56604;BME280;42486;47.478;19.036;2023-05-11T01:50:55;100288.56;;;12.63;69.47
56604;BME280;42486;47.478;19.036;2023-05-11T01:54:01;100295.22;;;12.67;69.88
56604;BME280;42486;47.478;19.036;2023-05-11T01:57:05;100296.97;;;12.77;70.21
56604;BME280;42486;47.478;19.036;2023-05-11T02:00:09;100295.03;;;12.80;70.21
56604;BME280;42486;47.478;19.036;2023-05-11T02:03:13;100295.50;;;12.85;70.09
56604;BME280;42486;47.478;19.036;2023-05-11T02:06:17;100287.63;;;12.85;70.19
56604;BME280;42486;47.478;19.036;2023-05-11T02:09:21;100288.75;;;12.71;70.12
56604;BME280;42486;47.478;19.036;2023-05-11T02:12:26;100283.31;;;12.63;70.36
56604;BME280;42486;47.478;19.036;2023-05-11T02:15:32;100284.81;;;12.55;70.74
56604;BME280;42486;47.478;19.036;2023-05-11T02:18:38;100286.12;;;12.50;70.37
56604;BME280;42486;47.478;19.036;2023-05-11T02:21:42;100274.37;;;12.44;70.59
56604;BME280;42486;47.478;19.036;2023-05-11T02:24:51;100279.03;;;12.41;70.72
56604;BME280;42486;47.478;19.036;2023-05-11T02:27:59;100274.69;;;12.30;71.25
56604;BME280;42486;47.478;19.036;2023-05-11T02:31:11;100275.88;;;12.26;71.74
56604;BME280;42486;47.478;19.036;2023-05-11T02:34:34;100275.19;;;12.24;72.55
56604;BME280;42486;47.478;19.036;2023-05-11T02:38:01;100271.97;;;12.20;73.12
56604;BME280;42486;47.478;19.036;2023-05-11T02:41:13;100270.44;;;12.18;73.30
56604;BME280;42486;47.478;19.036;2023-05-11T02:44:37;100265.97;;;12.08;73.57
56604;BME280;42486;47.478;19.036;2023-05-11T02:48:24;100267.63;;;12.09;72.79
56604;BME280;42486;47.478;19.036;2023-05-11T02:51:36;100265.81;;;12.21;73.62
56604;BME280;42486;47.478;19.036;2023-05-11T02:55:00;100262.28;;;12.11;72.82
56604;BME280;42486;47.478;19.036;2023-05-11T02:58:05;100265.25;;;12.06;72.13
56604;BME280;42486;47.478;19.036;2023-05-11T03:01:09;100262.53;;;12.08;72.95
56604;BME280;42486;47.478;19.036;2023-05-11T03:04:16;100260.28;;;12.03;70.66
56604;BME280;42486;47.478;19.036;2023-05-11T03:07:19;100257.69;;;11.92;70.15
56604;BME280;42486;47.478;19.036;2023-05-11T03:10:23;100259.09;;;11.85;70.76
56604;BME280;42486;47.478;19.036;2023-05-11T03:13:29;100254.47;;;11.88;70.40
56604;BME280;42486;47.478;19.036;2023-05-11T03:16:33;100261.47;;;11.99;69.35
56604;BME280;42486;47.478;19.036;2023-05-11T03:19:36;100264.44;;;12.06;68.94
56604;BME280;42486;47.478;19.036;2023-05-11T03:22:41;100261.91;;;12.04;69.40
56604;BME280;42486;47.478;19.036;2023-05-11T03:25:45;100264.44;;;12.06;69.44
56604;BME280;42486;47.478;19.036;2023-05-11T03:28:49;100261.59;;;11.98;69.79
56604;BME280;42486;47.478;19.036;2023-05-11T03:31:53;100271.09;;;11.99;70.24
56604;BME280;42486;47.478;19.036;2023-05-11T03:34:56;100277.53;;;12.06;70.33
56604;BME280;42486;47.478;19.036;2023-05-11T03:37:59;100274.91;;;12.06;70.75
56604;BME280;42486;47.478;19.036;2023-05-11T03:41:04;100276.56;;;12.07;72.47
56604;BME280;42486;47.478;19.036;2023-05-11T03:44:09;100276.59;;;11.96;73.64
56604;BME280;42486;47.478;19.036;2023-05-11T03:47:13;100269.97;;;11.92;73.49
56604;BME280;42486;47.478;19.036;2023-05-11T03:50:18;100278.03;;;11.88;72.77
56604;BME280;42486;47.478;19.036;2023-05-11T03:53:21;100281.50;;;11.89;73.90
56604;BME280;42486;47.478;19.036;2023-05-11T03:56:25;100275.06;;;11.93;73.89
56604;BME280;42486;47.478;19.036;2023-05-11T03:59:30;100276.84;;;11.93;72.99
56604;BME280;42486;47.478;19.036;2023-05-11T04:02:35;100283.97;;;11.90;72.72
56604;BME280;42486;47.478;19.036;2023-05-11T04:05:41;100285.66;;;11.92;72.62
56604;BME280;42486;47.478;19.036;2023-05-11T04:08:47;100285.28;;;11.85;72.08
56604;BME280;42486;47.478;19.036;2023-05-11T04:11:50;100287.31;;;11.70;71.83
56604;BME280;42486;47.478;19.036;2023-05-11T04:14:56;100285.41;;;11.72;73.31
56604;BME280;42486;47.478;19.036;2023-05-11T04:18:01;100291.37;;;11.74;71.69
56604;BME280;42486;47.478;19.036;2023-05-11T04:21:05;100292.19;;;11.86;71.33
56604;BME280;42486;47.478;19.036;2023-05-11T04:24:10;100296.09;;;11.80;71.66
56604;BME280;42486;47.478;19.036;2023-05-11T04:27:14;100296.59;;;11.74;71.20
56604;BME280;42486;47.478;19.036;2023-05-11T04:30:27;100307.28;;;11.82;71.55
56604;BME280;42486;47.478;19.036;2023-05-11T04:33:40;100306.31;;;11.83;71.50
56604;BME280;42486;47.478;19.036;2023-05-11T04:36:47;100314.31;;;11.93;72.73
56604;BME280;42486;47.478;19.036;2023-05-11T04:39:52;100311.81;;;12.03;71.46
56604;BME280;42486;47.478;19.036;2023-05-11T04:42:56;100311.19;;;12.10;71.04
56604;BME280;42486;47.478;19.036;2023-05-11T04:45:59;100311.00;;;12.23;70.94
56604;BME280;42486;47.478;19.036;2023-05-11T04:49:10;100313.00;;;12.31;71.83
56604;BME280;42486;47.478;19.036;2023-05-11T04:52:18;100316.62;;;12.51;70.66
56604;BME280;42486;47.478;19.036;2023-05-11T04:55:25;100320.78;;;12.53;69.50
56604;BME280;42486;47.478;19.036;2023-05-11T04:58:39;100321.81;;;12.62;69.14
56604;BME280;42486;47.478;19.036;2023-05-11T05:01:43;100325.47;;;12.71;69.42
56604;BME280;42486;47.478;19.036;2023-05-11T05:04:50;100322.56;;;12.95;67.81
56604;BME280;42486;47.478;19.036;2023-05-11T05:07:54;100325.91;;;12.97;66.81
56604;BME280;42486;47.478;19.036;2023-05-11T05:10:57;100325.19;;;12.95;62.97
56604;BME280;42486;47.478;19.036;2023-05-11T05:14:16;100327.59;;;12.98;63.55
56604;BME280;42486;47.478;19.036;2023-05-11T05:17:22;100331.06;;;13.08;61.61
56604;BME280;42486;47.478;19.036;2023-05-11T05:20:28;100333.75;;;13.18;62.71
56604;BME280;42486;47.478;19.036;2023-05-11T05:23:33;100336.38;;;13.18;60.31
56604;BME280;42486;47.478;19.036;2023-05-11T05:26:42;100339.03;;;12.97;59.62
56604;BME280;42486;47.478;19.036;2023-05-11T05:29:46;100340.47;;;12.90;61.77
56604;BME280;42486;47.478;19.036;2023-05-11T05:32:54;100339.03;;;12.97;59.58
56604;BME280;42486;47.478;19.036;2023-05-11T05:35:57;100335.50;;;13.29;59.22
56604;BME280;42486;47.478;19.036;2023-05-11T05:39:07;100339.97;;;13.38;58.41
56604;BME280;42486;47.478;19.036;2023-05-11T05:42:12;100335.06;;;13.54;57.17
56604;BME280;42486;47.478;19.036;2023-05-11T05:45:14;100340.94;;;13.77;56.12
56604;BME280;42486;47.478;19.036;2023-05-11T05:48:17;100347.19;;;13.96;56.04
56604;BME280;42486;47.478;19.036;2023-05-11T05:51:20;100345.66;;;13.83;56.41
56604;BME280;42486;47.478;19.036;2023-05-11T05:54:25;100353.00;;;13.90;56.35
56604;BME280;42486;47.478;19.036;2023-05-11T05:57:46;100346.00;;;14.39;55.89
56604;BME280;42486;47.478;19.036;2023-05-11T06:01:07;100359.03;;;14.98;53.76
56604;BME280;42486;47.478;19.036;2023-05-11T06:04:31;100356.13;;;14.92;52.29
56604;BME280;42486;47.478;19.036;2023-05-11T06:08:10;100355.44;;;14.90;53.31
56604;BME280;42486;47.478;19.036;2023-05-11T06:11:38;100348.00;;;15.32;52.87
56604;BME280;42486;47.478;19.036;2023-05-11T06:14:45;100354.56;;;15.56;52.31
56604;BME280;42486;47.478;19.036;2023-05-11T06:17:56;100352.19;;;15.72;51.97
56604;BME280;42486;47.478;19.036;2023-05-11T06:21:01;100353.16;;;15.61;52.16
56604;BME280;42486;47.478;19.036;2023-05-11T06:24:06;100348.66;;;15.34;52.91
56604;BME280;42486;47.478;19.036;2023-05-11T06:27:14;100346.72;;;15.36;53.26
56604;BME280;42486;47.478;19.036;2023-05-11T06:30:20;100356.44;;;15.36;53.46
56604;BME280;42486;47.478;19.036;2023-05-11T06:33:24;100358.09;;;15.74;51.96
56604;BME280;42486;47.478;19.036;2023-05-11T06:36:27;100360.69;;;15.84;51.61
56604;BME280;42486;47.478;19.036;2023-05-11T06:39:30;100352.81;;;15.37;53.32
56604;BME280;42486;47.478;19.036;2023-05-11T06:42:33;100353.78;;;15.46;52.93
56604;BME280;42486;47.478;19.036;2023-05-11T06:45:36;100343.38;;;15.44;54.05
56604;BME280;42486;47.478;19.036;2023-05-11T06:48:39;100344.59;;;15.50;54.47
56604;BME280;42486;47.478;19.036;2023-05-11T06:51:42;100347.19;;;15.69;53.78
56604;BME280;42486;47.478;19.036;2023-05-11T06:54:51;100343.94;;;16.03;52.86
56604;BME280;42486;47.478;19.036;2023-05-11T06:57:57;100349.03;;;16.32;52.05
56604;BME280;42486;47.478;19.036;2023-05-11T07:01:00;100344.41;;;16.16;52.13
56604;BME280;42486;47.478;19.036;2023-05-11T07:04:06;100341.31;;;16.57;50.92
56604;BME280;42486;47.478;19.036;2023-05-11T07:07:09;100340.34;;;16.76;51.20
56604;BME280;42486;47.478;19.036;2023-05-11T07:10:13;100336.34;;;16.89;50.48
56604;BME280;42486;47.478;19.036;2023-05-11T07:13:17;100338.41;;;17.04;49.35
56604;BME280;42486;47.478;19.036;2023-05-11T07:16:21;100331.00;;;17.33;46.85
56604;BME280;42486;47.478;19.036;2023-05-11T07:19:24;100340.31;;;17.80;45.39
56604;BME280;42486;47.478;19.036;2023-05-11T07:22:28;100340.62;;;19.57;41.43
56604;BME280;42486;47.478;19.036;2023-05-11T07:25:31;100345.47;;;21.52;38.41
56604;BME280;42486;47.478;19.036;2023-05-11T07:28:36;100346.28;;;23.12;33.71
56604;BME280;42486;47.478;19.036;2023-05-11T07:31:39;100353.62;;;24.60;32.13
56604;BME280;42486;47.478;19.036;2023-05-11T07:34:43;100355.53;;;25.65;30.56
56604;BME280;42486;47.478;19.036;2023-05-11T07:37:45;100350.41;;;26.72;27.90
56604;BME280;42486;47.478;19.036;2023-05-11T07:40:48;100357.31;;;26.61;27.40
56604;BME280;42486;47.478;19.036;2023-05-11T07:43:52;100355.97;;;27.39;26.46
56604;BME280;42486;47.478;19.036;2023-05-11T07:46:58;100349.56;;;27.21;26.46
56604;BME280;42486;47.478;19.036;2023-05-11T07:50:02;100349.03;;;27.31;25.65
56604;BME280;42486;47.478;19.036;2023-05-11T07:53:05;100362.16;;;26.96;25.24
56604;BME280;42486;47.478;19.036;2023-05-11T07:56:08;100358.34;;;25.83;27.04
56604;BME280;42486;47.478;19.036;2023-05-11T07:59:13;100344.75;;;25.33;27.80
56604;BME280;42486;47.478;19.036;2023-05-11T08:02:17;100357.31;;;25.19;28.86
56604;BME280;42486;47.478;19.036;2023-05-11T08:05:20;100352.03;;;23.15;31.64
56604;BME280;42486;47.478;19.036;2023-05-11T08:08:23;100341.69;;;21.76;35.08
56604;BME280;42486;47.478;19.036;2023-05-11T08:11:27;100335.81;;;21.07;36.09
56604;BME280;42486;47.478;19.036;2023-05-11T08:14:29;100341.22;;;20.99;36.13
56604;BME280;42486;47.478;19.036;2023-05-11T08:17:32;100338.47;;;21.07;36.85
56604;BME280;42486;47.478;19.036;2023-05-11T08:20:35;100337.62;;;20.92;37.91
56604;BME280;42486;47.478;19.036;2023-05-11T08:23:38;100338.50;;;20.46;38.18
56604;BME280;42486;47.478;19.036;2023-05-11T08:26:40;100329.69;;;20.22;37.47
56604;BME280;42486;47.478;19.036;2023-05-11T08:29:43;100328.69;;;19.61;38.39
56604;BME280;42486;47.478;19.036;2023-05-11T08:32:46;100315.78;;;19.66;38.90
56604;BME280;42486;47.478;19.036;2023-05-11T08:36:00;100323.06;;;19.95;39.16
56604;BME280;42486;47.478;19.036;2023-05-11T08:39:03;100317.63;;;19.49;37.80
56604;BME280;42486;47.478;19.036;2023-05-11T08:42:06;100317.34;;;19.44;39.47
56604;BME280;42486;47.478;19.036;2023-05-11T08:45:09;100303.81;;;19.62;40.41
56604;BME280;42486;47.478;19.036;2023-05-11T08:48:21;100313.53;;;20.09;38.23
56604;BME280;42486;47.478;19.036;2023-05-11T08:51:25;100314.87;;;19.82;37.63
56604;BME280;42486;47.478;19.036;2023-05-11T08:54:29;100301.16;;;19.62;38.21
56604;BME280;42486;47.478;19.036;2023-05-11T08:57:31;100298.25;;;19.88;40.49
56604;BME280;42486;47.478;19.036;2023-05-11T09:00:36;100303.56;;;20.34;38.92
56604;BME280;42486;47.478;19.036;2023-05-11T09:03:39;100302.22;;;20.38;37.93
56604;BME280;42486;47.478;19.036;2023-05-11T09:06:43;100298.25;;;20.34;37.36
56604;BME280;42486;47.478;19.036;2023-05-11T09:09:46;100288.81;;;19.86;38.21
56604;BME280;42486;47.478;19.036;2023-05-11T09:12:49;100288.75;;;19.71;39.80
56604;BME280;42486;47.478;19.036;2023-05-11T09:15:52;100288.97;;;19.92;39.83
56604;BME280;42486;47.478;19.036;2023-05-11T09:18:57;100290.69;;;20.08;38.98
56604;BME280;42486;47.478;19.036;2023-05-11T09:22:03;100282.59;;;20.01;39.11
56604;BME280;42486;47.478;19.036;2023-05-11T09:25:12;100284.19;;;20.57;39.79
56604;BME280;42486;47.478;19.036;2023-05-11T09:28:19;100281.03;;;20.53;36.80
56604;BME280;42486;47.478;19.036;2023-05-11T09:31:43;100269.25;;;20.10;37.51
56604;BME280;42486;47.478;19.036;2023-05-11T09:34:47;100270.69;;;19.97;38.31
56604;BME280;42486;47.478;19.036;2023-05-11T09:37:58;100259.88;;;19.99;37.30
56604;BME280;42486;47.478;19.036;2023-05-11T09:41:02;100275.03;;;20.36;37.79
56604;BME280;42486;47.478;19.036;2023-05-11T09:44:13;100260.31;;;19.88;37.02
56604;BME280;42486;47.478;19.036;2023-05-11T09:47:16;100259.34;;;19.80;35.84
56604;BME280;42486;47.478;19.036;2023-05-11T09:50:19;100262.50;;;19.84;36.83
56604;BME280;42486;47.478;19.036;2023-05-11T09:53:40;100267.44;;;20.10;35.49
56604;BME280;42486;47.478;19.036;2023-05-11T09:56:49;100254.28;;;20.40;35.65
56604;BME280;42486;47.478;19.036;2023-05-11T10:00:02;100253.50;;;20.54;34.25
56604;BME280;42486;47.478;19.036;2023-05-11T10:03:07;100252.91;;;20.67;34.28
56604;BME280;42486;47.478;19.036;2023-05-11T10:06:12;100258.50;;;20.49;34.65
56604;BME280;42486;47.478;19.036;2023-05-11T10:09:15;100244.53;;;20.55;32.35
56604;BME280;42486;47.478;19.036;2023-05-11T10:12:20;100250.69;;;20.33;33.08
56604;BME280;42486;47.478;19.036;2023-05-11T10:15:26;100239.28;;;20.47;34.03
56604;BME280;42486;47.478;19.036;2023-05-11T10:18:33;100238.97;;;20.95;32.15
56604;BME280;42486;47.478;19.036;2023-05-11T10:21:38;100241.78;;;20.63;33.98
56604;BME280;42486;47.478;19.036;2023-05-11T10:24:41;100247.31;;;20.77;34.21
56604;BME280;42486;47.478;19.036;2023-05-11T10:27:44;100241.06;;;21.14;33.08
56604;BME280;42486;47.478;19.036;2023-05-11T10:30:47;100234.94;;;20.84;33.30
56604;BME280;42486;47.478;19.036;2023-05-11T10:33:50;100238.34;;;20.93;32.39
56604;BME280;42486;47.478;19.036;2023-05-11T10:36:54;100243.09;;;20.97;32.86
56604;BME280;42486;47.478;19.036;2023-05-11T10:39:59;100226.53;;;20.80;33.66
56604;BME280;42486;47.478;19.036;2023-05-11T10:46:17;100229.19;;;20.80;32.99
56604;BME280;42486;47.478;19.036;2023-05-11T10:49:40;100224.78;;;21.02;32.52
56604;BME280;42486;47.478;19.036;2023-05-11T10:59:32;100221.03;;;20.97;32.15
56604;BME280;42486;47.478;19.036;2023-05-11T11:02:40;100222.56;;;21.06;32.57
56604;BME280;42486;47.478;19.036;2023-05-11T11:05:44;100208.56;;;21.63;32.66
56604;BME280;42486;47.478;19.036;2023-05-11T11:08:54;100197.69;;;21.58;33.65
56604;BME280;42486;47.478;19.036;2023-05-11T11:12:07;100210.91;;;21.37;32.55
56604;BME280;42486;47.478;19.036;2023-05-11T11:15:10;100208.75;;;21.10;31.89
56604;BME280;42486;47.478;19.036;2023-05-11T11:21:38;100195.41;;;21.04;32.01
56604;BME280;42486;47.478;19.036;2023-05-11T11:24:42;100207.31;;;20.93;31.16
56604;BME280;42486;47.478;19.036;2023-05-11T11:31:21;100191.00;;;20.29;31.74
56604;BME280;42486;47.478;19.036;2023-05-11T11:37:31;100186.06;;;20.93;32.54
56604;BME280;42486;47.478;19.036;2023-05-11T11:40:55;100194.47;;;20.82;33.34
56604;BME280;42486;47.478;19.036;2023-05-11T11:43:58;100186.56;;;20.44;32.58
56604;BME280;42486;47.478;19.036;2023-05-11T11:47:17;100184.25;;;20.64;32.53
56604;BME280;42486;47.478;19.036;2023-05-11T11:50:26;100183.28;;;20.72;33.28
56604;BME280;42486;47.478;19.036;2023-05-11T11:56:42;100175.84;;;20.52;33.05
56604;BME280;42486;47.478;19.036;2023-05-11T11:59:46;100188.31;;;20.52;32.31
56604;BME280;42486;47.478;19.036;2023-05-11T12:02:49;100192.38;;;20.62;32.02
56604;BME280;42486;47.478;19.036;2023-05-11T12:05:52;100185.75;;;21.03;31.14
56604;BME280;42486;47.478;19.036;2023-05-11T12:08:59;100176.22;;;21.81;31.34
56604;BME280;42486;47.478;19.036;2023-05-11T12:12:02;100172.50;;;21.75;30.77
56604;BME280;42486;47.478;19.036;2023-05-11T12:15:08;100170.03;;;21.38;32.14
56604;BME280;42486;47.478;19.036;2023-05-11T12:18:24;100176.78;;;20.74;32.16
56604;BME280;42486;47.478;19.036;2023-05-11T12:21:28;100167.31;;;20.42;33.50
56604;BME280;42486;47.478;19.036;2023-05-11T12:24:33;100167.91;;;20.82;31.27
56604;BME280;42486;47.478;19.036;2023-05-11T12:27:36;100162.81;;;21.17;31.46
56604;BME280;42486;47.478;19.036;2023-05-11T12:30:52;100170.31;;;21.64;31.79
56604;BME280;42486;47.478;19.036;2023-05-11T12:34:01;100166.47;;;21.30;32.29
56604;BME280;42486;47.478;19.036;2023-05-11T12:37:04;100164.44;;;20.96;31.87
56604;BME280;42486;47.478;19.036;2023-05-11T12:40:10;100158.66;;;20.93;31.71
56604;BME280;42486;47.478;19.036;2023-05-11T12:43:18;100151.16;;;21.32;32.13
56604;BME280;42486;47.478;19.036;2023-05-11T12:46:21;100137.94;;;21.75;31.71
56604;BME280;42486;47.478;19.036;2023-05-11T12:49:25;100138.87;;;21.68;31.93
56604;BME280;42486;47.478;19.036;2023-05-11T12:52:29;100139.19;;;21.58;32.06
56604;BME280;42486;47.478;19.036;2023-05-11T12:55:33;100138.16;;;21.38;30.72
56604;BME280;42486;47.478;19.036;2023-05-11T12:58:37;100150.59;;;21.52;31.10
56604;BME280;42486;47.478;19.036;2023-05-11T13:01:41;100134.38;;;21.68;31.26
56604;BME280;42486;47.478;19.036;2023-05-11T13:04:45;100126.16;;;21.63;29.95
56604;BME280;42486;47.478;19.036;2023-05-11T13:07:55;100120.00;;;21.84;31.24
56604;BME280;42486;47.478;19.036;2023-05-11T13:14:19;100114.31;;;21.66;30.34
56604;BME280;42486;47.478;19.036;2023-05-11T13:17:32;100117.31;;;21.84;32.82
56604;BME280;42486;47.478;19.036;2023-05-11T13:20:37;100096.91;;;21.91;30.14
56604;BME280;42486;47.478;19.036;2023-05-11T13:23:40;100109.31;;;22.06;29.37
56604;BME280;42486;47.478;19.036;2023-05-11T13:26:43;100112.03;;;21.91;29.00
56604;BME280;42486;47.478;19.036;2023-05-11T13:29:46;100102.09;;;21.99;29.65
56604;BME280;42486;47.478;19.036;2023-05-11T13:32:49;100099.03;;;22.31;29.67
56604;BME280;42486;47.478;19.036;2023-05-11T13:35:52;100094.81;;;22.43;29.81
56604;BME280;42486;47.478;19.036;2023-05-11T13:38:55;100097.16;;;21.96;30.70
56604;BME280;42486;47.478;19.036;2023-05-11T13:41:57;100100.69;;;21.75;31.31
56604;BME280;42486;47.478;19.036;2023-05-11T13:45:01;100089.44;;;21.52;32.88
56604;BME280;42486;47.478;19.036;2023-05-11T13:48:04;100098.56;;;21.06;32.27
56604;BME280;42486;47.478;19.036;2023-05-11T13:51:08;100088.78;;;20.92;32.38
56604;BME280;42486;47.478;19.036;2023-05-11T13:54:10;100088.84;;;20.77;32.78
56604;BME280;42486;47.478;19.036;2023-05-11T13:57:14;100077.56;;;20.60;32.31
56604;BME280;42486;47.478;19.036;2023-05-11T14:00:17;100075.84;;;20.38;32.71
56604;BME280;42486;47.478;19.036;2023-05-11T14:03:21;100082.13;;;20.37;32.50
56604;BME280;42486;47.478;19.036;2023-05-11T14:06:25;100084.44;;;20.55;32.68
56604;BME280;42486;47.478;19.036;2023-05-11T14:09:28;100074.75;;;20.62;32.18
56604;BME280;42486;47.478;19.036;2023-05-11T14:12:33;100085.25;;;20.70;32.58
56604;BME280;42486;47.478;19.036;2023-05-11T14:15:39;100073.28;;;20.59;31.53
56604;BME280;42486;47.478;19.036;2023-05-11T14:18:42;100076.81;;;20.52;31.59
56604;BME280;42486;47.478;19.036;2023-05-11T14:21:47;100068.88;;;20.37;31.15
56604;BME280;42486;47.478;19.036;2023-05-11T14:24:51;100067.75;;;20.01;31.56
56604;BME280;42486;47.478;19.036;2023-05-11T14:27:53;100076.72;;;20.15;31.21
56604;BME280;42486;47.478;19.036;2023-05-11T14:30:57;100070.25;;;20.18;31.48
56604;BME280;42486;47.478;19.036;2023-05-11T14:34:01;100064.37;;;20.08;31.85
56604;BME280;42486;47.478;19.036;2023-05-11T14:37:05;100061.09;;;20.06;31.90
56604;BME280;42486;47.478;19.036;2023-05-11T14:40:07;100064.66;;;20.28;32.24
56604;BME280;42486;47.478;19.036;2023-05-11T14:43:11;100057.16;;;20.31;33.17
56604;BME280;42486;47.478;19.036;2023-05-11T14:46:15;100055.06;;;20.27;32.90
56604;BME280;42486;47.478;19.036;2023-05-11T14:49:17;100069.16;;;20.27;32.15
56604;BME280;42486;47.478;19.036;2023-05-11T14:52:21;100062.00;;;20.28;33.30
56604;BME280;42486;47.478;19.036;2023-05-11T14:55:24;100057.63;;;20.20;32.93
56604;BME280;42486;47.478;19.036;2023-05-11T14:58:27;100057.25;;;20.23;33.17
56604;BME280;42486;47.478;19.036;2023-05-11T15:01:29;100059.81;;;20.01;33.36
56604;BME280;42486;47.478;19.036;2023-05-11T15:04:32;100065.19;;;19.93;33.28
56604;BME280;42486;47.478;19.036;2023-05-11T15:07:35;100057.69;;;19.82;34.09
56604;BME280;42486;47.478;19.036;2023-05-11T15:10:40;100059.50;;;19.82;33.33
56604;BME280;42486;47.478;19.036;2023-05-11T15:13:42;100057.69;;;19.82;33.32
56604;BME280;42486;47.478;19.036;2023-05-11T15:16:45;100051.19;;;19.62;33.77
56604;BME280;42486;47.478;19.036;2023-05-11T15:19:48;100066.00;;;19.56;34.15
56604;BME280;42486;47.478;19.036;2023-05-11T15:22:51;100060.84;;;19.54;33.65
56604;BME280;42486;47.478;19.036;2023-05-11T15:25:54;100059.38;;;19.52;34.58
56604;BME280;42486;47.478;19.036;2023-05-11T15:29:00;100061.06;;;19.53;33.93
56604;BME280;42486;47.478;19.036;2023-05-11T15:32:02;100065.72;;;19.51;34.84
56604;BME280;42486;47.478;19.036;2023-05-11T15:35:05;100066.72;;;19.50;33.83
56604;BME280;42486;47.478;19.036;2023-05-11T15:38:08;100054.53;;;19.41;34.64
56604;BME280;42486;47.478;19.036;2023-05-11T15:41:12;100065.78;;;19.43;34.94
56604;BME280;42486;47.478;19.036;2023-05-11T15:44:16;100071.06;;;19.43;36.14
56604;BME280;42486;47.478;19.036;2023-05-11T15:47:19;100061.28;;;19.43;36.62
56604;BME280;42486;47.478;19.036;2023-05-11T15:50:22;100066.44;;;19.45;35.89
56604;BME280;42486;47.478;19.036;2023-05-11T15:53:25;100064.94;;;19.42;36.09
56604;BME280;42486;47.478;19.036;2023-05-11T15:56:29;100074.78;;;19.33;35.98
56604;BME280;42486;47.478;19.036;2023-05-11T15:59:32;100061.41;;;19.27;36.96
56604;BME280;42486;47.478;19.036;2023-05-11T16:02:34;100059.94;;;19.24;36.83
56604;BME280;42486;47.478;19.036;2023-05-11T16:05:38;100067.87;;;19.24;37.12
56604;BME280;42486;47.478;19.036;2023-05-11T16:08:42;100073.25;;;19.16;38.08
56604;BME280;42486;47.478;19.036;2023-05-11T16:11:45;100082.19;;;19.15;37.21
56604;BME280;42486;47.478;19.036;2023-05-11T16:14:49;100078.53;;;19.16;37.37
56604;BME280;42486;47.478;19.036;2023-05-11T16:17:52;100073.59;;;19.13;37.52
56604;BME280;42486;47.478;19.036;2023-05-11T16:20:55;100077.13;;;19.05;37.76
56604;BME280;42486;47.478;19.036;2023-05-11T16:23:57;100084.59;;;19.02;38.43
56604;BME280;42486;47.478;19.036;2023-05-11T16:27:00;100082.00;;;18.94;38.04
56604;BME280;42486;47.478;19.036;2023-05-11T16:30:04;100085.38;;;18.79;38.39
56604;BME280;42486;47.478;19.036;2023-05-11T16:33:25;100086.84;;;18.82;38.53
56604;BME280;42486;47.478;19.036;2023-05-11T16:36:29;100088.00;;;18.79;39.86
56604;BME280;42486;47.478;19.036;2023-05-11T16:39:32;100090.50;;;18.81;39.15
56604;BME280;42486;47.478;19.036;2023-05-11T16:42:40;100097.28;;;18.83;39.19